Time;durP1;ratioP1;P1;durP2;ratioP2;P2;SDS_P1;SDS_P2;PMS_P1;PMS_P2;Temp;Humidity;BMP_temperature;BMP_pressure;BME280_temperature;BME280_humidity;BME280_pressure;Samples;Min_cycle;Max_cycle;Signal;HPM_P1;HPM_P2
2022/06/17 00:01:46;;;;;;;4.68;2.88;;;;;;;14.01;100.00;101409.25;6240007;28;20115;-91
2022/06/17 00:04:47;;;;;;;4.15;3.05;;;;;;;13.94;100.00;101418.53;6248085;28;20403;-91
2022/06/17 00:07:50;;;;;;;4.95;2.63;;;;;;;13.88;100.00;101421.59;6246268;28;20073;-91
2022/06/17 00:10:52;;;;;;;4.28;3.10;;;;;;;13.86;100.00;101413.88;6243757;28;20411;-90
2022/06/17 00:13:54;;;;;;;4.53;2.85;;;;;;;13.80;100.00;101430.00;6235612;28;20068;-90
2022/06/17 00:16:56;;;;;;;8.32;3.45;;;;;;;13.74;100.00;101430.50;6239856;28;20061;-90
2022/06/17 00:19:58;;;;;;;4.40;2.92;;;;;;;13.71;100.00;101443.72;6239094;28;20041;-90
2022/06/17 00:23:02;;;;;;;4.57;3.00;;;;;;;13.67;100.00;101445.75;6239571;28;20443;-90
2022/06/17 00:26:04;;;;;;;4.75;3.00;;;;;;;13.57;100.00;101435.22;6254946;28;20060;-91
2022/06/17 00:29:09;;;;;;;3.53;2.55;;;;;;;13.52;100.00;101437.34;6239736;28;20045;-91
2022/06/17 00:32:11;;;;;;;3.53;2.78;;;;;;;13.45;100.00;101432.72;6240289;28;20375;-90
2022/06/17 00:35:14;;;;;;;3.97;2.75;;;;;;;13.37;100.00;101435.91;6238211;28;20395;-91
2022/06/17 00:38:32;;;;;;;4.60;2.83;;;;;;;13.27;100.00;101424.56;6241256;28;20033;-91
2022/06/17 00:41:38;;;;;;;4.22;2.90;;;;;;;13.23;100.00;101426.53;6235502;28;20474;-90
2022/06/17 00:45:05;;;;;;;4.38;2.97;;;;;;;13.28;100.00;101436.59;6238400;28;20041;-91
2022/06/17 00:48:18;;;;;;;6.45;3.33;;;;;;;13.21;100.00;101437.97;6247043;28;20052;-91
2022/06/17 00:51:23;;;;;;;3.80;2.95;;;;;;;13.20;100.00;101444.13;6262713;28;20049;-91
2022/06/17 00:54:30;;;;;;;4.25;3.20;;;;;;;13.13;100.00;101436.78;6251023;28;20597;-91
2022/06/17 00:57:36;;;;;;;5.18;2.97;;;;;;;13.12;100.00;101436.91;6245984;28;20215;-90
2022/06/17 01:00:38;;;;;;;4.93;3.40;;;;;;;13.08;100.00;101427.69;6247492;28;20053;-90
2022/06/17 01:03:39;;;;;;;5.20;3.20;;;;;;;13.09;100.00;101424.97;6246480;28;20134;-91
2022/06/17 01:06:48;;;;;;;4.82;3.10;;;;;;;13.04;100.00;101424.50;6235559;28;20041;-90
2022/06/17 01:10:02;;;;;;;4.43;3.50;;;;;;;13.05;100.00;101414.94;6245846;28;20068;-91
2022/06/17 01:13:08;;;;;;;5.25;3.50;;;;;;;13.03;100.00;101420.22;6238910;28;20040;-90
2022/06/17 01:16:12;;;;;;;5.82;4.10;;;;;;;13.01;100.00;101418.69;6236304;28;20506;-91
2022/06/17 01:19:39;;;;;;;5.65;3.67;;;;;;;13.03;100.00;101419.41;6239041;28;20054;-90
2022/06/17 01:22:58;;;;;;;5.75;3.22;;;;;;;13.00;100.00;101423.06;6238277;28;20144;-91
2022/06/17 01:26:01;;;;;;;3.80;3.40;;;;;;;12.98;100.00;101431.91;6239669;28;20041;-91
2022/06/17 01:29:09;;;;;;;4.03;3.33;;;;;;;12.93;100.00;101430.47;6218115;28;20057;-91
2022/06/17 01:32:13;;;;;;;6.25;3.72;;;;;;;12.93;100.00;101433.06;6232741;28;20046;-90
2022/06/17 01:35:18;;;;;;;4.25;3.33;;;;;;;12.89;100.00;101442.06;6220545;28;20395;-91
2022/06/17 01:38:22;;;;;;;7.53;3.53;;;;;;;12.90;100.00;101445.47;6234369;28;20034;-90
2022/06/17 01:41:28;;;;;;;5.13;3.55;;;;;;;12.85;100.00;101458.00;6202535;28;20061;-90
2022/06/17 01:44:33;;;;;;;4.10;3.10;;;;;;;12.82;100.00;101450.41;6239681;28;20128;-91
2022/06/17 01:47:40;;;;;;;3.30;3.03;;;;;;;12.78;100.00;101451.59;6262080;28;20648;-90
2022/06/17 01:50:46;;;;;;;3.13;2.83;;;;;;;12.73;100.00;101467.50;6238476;28;20272;-91
2022/06/17 01:53:54;;;;;;;3.05;2.80;;;;;;;12.65;100.00;101462.03;6239424;28;20152;-90
2022/06/17 01:56:59;;;;;;;4.15;3.00;;;;;;;12.61;100.00;101474.41;6243907;28;20042;-90
2022/06/17 02:00:24;;;;;;;7.18;3.10;;;;;;;12.59;100.00;101471.09;6238435;28;20286;-90
2022/06/17 02:03:40;;;;;;;6.78;3.63;;;;;;;12.51;100.00;101470.81;6227596;28;20132;-91
2022/06/17 02:06:52;;;;;;;5.35;3.38;;;;;;;12.52;100.00;101471.66;6239368;28;20045;-91
2022/06/17 02:09:54;;;;;;;;;;;;;;;12.46;100.00;101473.75;6229310;28;20049;-91
2022/06/17 02:12:58;;;;;;;5.88;3.17;;;;;;;12.46;100.00;101483.31;6249395;28;19939;-90
2022/06/17 02:16:05;;;;;;;3.97;3.38;;;;;;;12.39;100.00;101479.50;6233935;28;20057;-90
2022/06/17 02:19:37;;;;;;;3.38;3.08;;;;;;;12.39;100.00;101482.91;6231689;28;20095;-90
2022/06/17 02:22:42;;;;;;;4.03;3.22;;;;;;;12.37;100.00;101478.75;6243139;28;20129;-91
2022/06/17 02:25:49;;;;;;;6.25;3.28;;;;;;;12.31;100.00;101463.63;6232074;28;20637;-91
2022/06/17 02:28:51;;;;;;;4.68;3.35;;;;;;;12.29;100.00;101456.78;6243343;28;20506;-90
2022/06/17 02:31:57;;;;;;;4.72;3.67;;;;;;;12.32;100.00;101452.31;6244218;28;20080;-90
2022/06/17 02:35:23;;;;;;;7.70;3.88;;;;;;;12.30;100.00;101444.66;6242760;28;20167;-90
2022/06/17 02:38:30;;;;;;;6.10;3.90;;;;;;;12.30;100.00;101447.25;6168241;28;20431;-90
2022/06/17 02:41:32;;;;;;;6.65;4.03;;;;;;;12.30;100.00;101449.84;6163929;28;20705;-90
2022/06/17 02:44:40;;;;;;;4.72;3.83;;;;;;;12.33;100.00;101454.81;6185540;28;20427;-90
2022/06/17 02:47:43;;;;;;;4.97;3.58;;;;;;;12.32;100.00;101454.91;6168612;28;20054;-91
2022/06/17 02:50:45;;;;;;;4.20;3.80;;;;;;;12.29;100.00;101459.38;6191299;28;20057;-91
2022/06/17 02:53:47;;;;;;;7.55;4.03;;;;;;;12.30;100.00;101455.03;6190353;28;20132;-90
2022/06/17 02:56:56;;;;;;;6.25;3.90;;;;;;;12.35;100.00;101462.50;6164161;28;20042;-91
2022/06/17 03:00:03;;;;;;;5.18;3.70;;;;;;;12.46;100.00;101463.34;6181969;28;20050;-90
2022/06/17 03:03:10;;;;;;;8.38;3.67;;;;;;;12.53;100.00;101458.56;6185022;28;20058;-91
2022/06/17 03:06:27;;;;;;;5.47;3.90;;;;;;;12.46;100.00;101458.16;6170410;28;20133;-90
2022/06/17 03:09:33;;;;;;;4.30;3.63;;;;;;;12.47;100.00;101453.78;6185233;28;20065;-90
2022/06/17 03:12:35;;;;;;;5.30;3.45;;;;;;;12.51;100.00;101450.03;6167560;28;20034;-90
2022/06/17 03:15:40;;;;;;;4.82;3.65;;;;;;;12.48;100.00;101450.28;6221966;28;20732;-90
2022/06/17 03:18:45;;;;;;;5.05;3.83;;;;;;;12.46;100.00;101437.38;6226926;28;20041;-90
2022/06/17 03:21:47;;;;;;;5.20;3.50;;;;;;;12.48;100.00;101439.88;6235753;28;20574;-90
2022/06/17 03:25:04;;;;;;;4.53;3.58;;;;;;;12.49;100.00;101444.94;6229021;28;20520;-90
2022/06/17 03:28:10;;;;;;;7.95;3.58;;;;;;;12.48;100.00;101450.28;6232993;28;20472;-91
2022/06/17 03:31:31;;;;;;;4.97;3.80;;;;;;;12.49;100.00;101450.16;6244957;28;20189;-90
2022/06/17 03:34:37;;;;;;;5.07;3.47;;;;;;;12.50;100.00;101441.44;6240739;28;20558;-90
2022/06/17 03:38:13;;;;;;;5.22;3.38;;;;;;;12.57;100.00;101441.81;6244106;28;20049;-90
2022/06/17 03:41:26;;;;;;;6.80;3.40;;;;;;;12.62;100.00;101444.91;6232013;28;20049;-90
2022/06/17 03:45:12;;;;;;;4.90;3.30;;;;;;;12.76;100.00;101448.25;6220367;28;20052;-90
2022/06/17 03:48:19;;;;;;;6.18;3.42;;;;;;;12.85;100.00;101452.78;6159615;28;20069;-91
2022/06/17 03:51:24;;;;;;;5.95;3.75;;;;;;;12.92;100.00;101454.00;6168291;28;20386;-90
2022/06/17 03:54:29;;;;;;;4.18;3.40;;;;;;;13.02;100.00;101452.38;6169991;28;20077;-91
2022/06/17 03:57:32;;;;;;;4.90;3.30;;;;;;;13.11;100.00;101456.88;6170135;28;20046;-91
2022/06/17 04:00:44;;;;;;;3.40;3.03;;;;;;;13.13;100.00;101456.75;6191828;28;20046;-90
2022/06/17 04:03:56;;;;;;;5.32;3.58;;;;;;;13.18;100.00;101459.84;6173527;28;20046;-91
2022/06/17 04:07:00;;;;;;;5.05;3.40;;;;;;;13.18;100.00;101465.03;6175155;28;20050;-90
2022/06/17 04:10:18;;;;;;;6.03;3.40;;;;;;;13.15;100.00;101465.28;6170554;28;20038;-90
2022/06/17 04:13:28;;;;;;;4.25;3.28;;;;;;;13.19;100.00;101460.66;6171994;28;20579;-90
2022/06/17 04:16:43;;;;;;;4.45;3.42;;;;;;;13.26;100.00;101456.66;6188457;28;20172;-91
2022/06/17 04:19:50;;;;;;;;;;;;;;;13.31;100.00;101457.19;6183957;28;20045;-90
2022/06/17 04:23:00;;;;;;;4.15;3.45;;;;;;;13.38;100.00;101452.34;6215944;28;20430;-90
2022/06/17 04:26:31;;;;;;;5.38;3.30;;;;;;;13.41;100.00;101457.31;6233171;28;20053;-91
2022/06/17 04:29:51;;;;;;;6.25;3.15;;;;;;;13.46;100.00;101447.38;6221610;28;20053;-90
2022/06/17 04:32:59;;;;;;;4.68;3.10;;;;;;;13.48;100.00;101454.13;6221071;28;20045;-90
2022/06/17 04:36:10;;;;;;;3.60;3.22;;;;;;;13.45;100.00;101458.75;6228516;28;20147;-90
2022/06/17 04:39:36;;;;;;;6.88;2.85;;;;;;;13.42;100.00;101453.78;6238174;28;20042;-90
2022/06/17 04:43:00;;;;;;;4.55;3.03;;;;;;;13.39;100.00;101454.00;6200533;28;20064;-91
2022/06/17 04:46:08;;;;;;;4.32;3.50;;;;;;;13.36;100.00;101452.44;6206920;28;20061;-90
2022/06/17 04:49:21;;;;;;;3.65;3.10;;;;;;;13.35;100.00;101453.41;6206304;28;20058;-90
2022/06/17 04:52:32;;;;;;;6.18;3.30;;;;;;;13.30;100.00;101452.94;6204143;28;20054;-91
2022/06/17 04:55:54;;;;;;;3.83;3.15;;;;;;;13.22;100.00;101458.69;6215744;28;20057;-90
2022/06/17 04:59:34;;;;;;;4.88;3.40;;;;;;;13.22;100.00;101466.47;6195753;28;20727;-90
2022/06/17 05:02:36;;;;;;;3.55;3.25;;;;;;;13.28;100.00;101460.00;6205465;28;20128;-91
2022/06/17 05:05:56;;;;;;;4.88;3.08;;;;;;;13.34;100.00;101457.78;6213417;28;20504;-91
2022/06/17 05:09:20;;;;;;;5.50;3.30;;;;;;;13.39;100.00;101467.84;6178769;28;20085;-90
2022/06/17 05:12:31;;;;;;;4.13;3.15;;;;;;;13.45;100.00;101464.75;6176572;28;20038;-90
2022/06/17 05:15:36;;;;;;;7.65;3.72;;;;;;;13.48;100.00;101471.50;6195132;28;20038;-90
2022/06/17 05:18:39;;;;;;;4.30;3.40;;;;;;;13.55;100.00;101472.69;6197058;28;20133;-90
2022/06/17 05:21:44;;;;;;;4.78;3.50;;;;;;;13.63;100.00;101472.09;6222246;28;20053;-90
2022/06/17 05:24:51;;;;;;;4.70;3.63;;;;;;;13.69;100.00;101472.47;6237954;28;20107;-90
2022/06/17 05:27:53;;;;;;;5.43;3.78;;;;;;;13.76;100.00;101471.06;6226511;28;20037;-90
2022/06/17 05:30:56;;;;;;;6.97;3.40;;;;;;;13.85;100.00;101474.72;6240031;28;20487;-90
2022/06/17 05:34:09;;;;;;;6.28;3.75;;;;;;;13.93;100.00;101472.31;6216809;28;20185;-90
2022/06/17 05:37:14;;;;;;;4.68;4.10;;;;;;;14.03;100.00;101476.81;6205566;28;20437;-90
2022/06/17 05:40:17;;;;;;;4.32;3.92;;;;;;;14.15;100.00;101475.88;6237129;28;20801;-90
2022/06/17 05:43:19;;;;;;;5.93;3.67;;;;;;;14.26;100.00;101481.06;6220425;28;20033;-90
2022/06/17 05:46:22;;;;;;;7.05;3.33;;;;;;;14.39;100.00;101484.34;6248753;28;20209;-90
2022/06/17 05:49:48;;;;;;;4.95;3.65;;;;;;;14.50;100.00;101483.47;6234238;28;20053;-91
2022/06/17 05:53:13;;;;;;;5.50;3.75;;;;;;;14.63;100.00;101472.91;6225741;28;20099;-90
2022/06/17 05:56:21;;;;;;;5.82;3.58;;;;;;;14.73;100.00;101479.06;6237010;28;20045;-90
2022/06/17 05:59:23;;;;;;;4.32;3.60;;;;;;;14.83;100.00;101484.31;6248699;28;20555;-91
2022/06/17 06:02:25;;;;;;;6.18;3.38;;;;;;;14.92;100.00;101477.53;6234022;28;20069;-90
2022/06/17 06:05:36;;;;;;;3.95;3.45;;;;;;;15.02;100.00;101481.03;6239084;28;20060;-91
2022/06/17 06:08:42;;;;;;;4.93;3.35;;;;;;;15.11;100.00;101479.47;6234606;28;20052;-90
2022/06/17 06:11:44;;;;;;;8.82;3.40;;;;;;;15.19;100.00;101474.44;6240560;28;20103;-90
2022/06/17 06:14:49;;;;;;;5.68;3.70;;;;;;;15.29;100.00;101483.16;6238166;28;20530;-91
2022/06/17 06:17:55;;;;;;;6.00;3.92;;;;;;;15.39;100.00;101481.41;6235602;28;20053;-90
2022/06/17 06:20:57;;;;;;;4.95;3.63;;;;;;;15.49;100.00;101486.69;6238477;28;20048;-90
2022/06/17 06:24:01;;;;;;;6.25;3.55;;;;;;;15.55;100.00;101485.34;6227928;28;20403;-90
2022/06/17 06:27:06;;;;;;;4.93;3.58;;;;;;;15.64;100.00;101490.59;6224786;28;20164;-90
2022/06/17 06:30:25;;;;;;;5.57;3.17;;;;;;;15.72;100.00;101495.19;6236305;28;20532;-90
2022/06/17 06:33:28;;;;;;;4.50;3.33;;;;;;;15.81;100.00;101499.63;6234798;28;20053;-90
2022/06/17 06:36:30;;;;;;;3.45;3.13;;;;;;;15.91;100.00;101503.09;6235193;28;20527;-90
2022/06/17 06:39:33;;;;;;;6.53;3.10;;;;;;;16.02;100.00;101493.53;6206613;28;20569;-91
2022/06/17 06:42:35;;;;;;;4.80;3.08;;;;;;;16.07;99.90;101486.97;6251237;28;20693;-90
2022/06/17 06:45:56;;;;;;;6.05;3.17;;;;;;;16.21;97.92;101503.22;6237078;28;20120;-90
2022/06/17 06:48:58;;;;;;;4.90;3.05;;;;;;;16.28;97.78;101497.31;6235434;28;20132;-90
2022/06/17 06:52:00;;;;;;;5.32;3.17;;;;;;;16.39;95.57;101495.53;6242073;28;20049;-90
2022/06/17 06:55:03;;;;;;;4.40;3.00;;;;;;;16.49;93.61;101489.34;6219282;28;20073;-90
2022/06/17 06:58:12;;;;;;;5.38;3.08;;;;;;;16.71;90.67;101496.13;6245295;28;20060;-90
2022/06/17 07:01:23;;;;;;;4.00;3.03;;;;;;;16.77;91.07;101497.38;6237936;28;20451;-90
2022/06/17 07:04:25;;;;;;;5.05;3.50;;;;;;;16.81;89.42;101493.53;6253345;28;20052;-90
2022/06/17 07:07:28;;;;;;;3.28;2.60;;;;;;;16.93;83.03;101495.03;6238041;28;20048;-90
2022/06/17 07:10:33;;;;;;;5.38;2.75;;;;;;;17.04;78.91;101499.28;6238427;28;20518;-90
2022/06/17 07:13:35;;;;;;;6.63;3.15;;;;;;;17.11;79.79;101499.56;6237429;28;20061;-90
2022/06/17 07:16:37;;;;;;;4.43;2.78;;;;;;;17.22;78.67;101508.09;6235780;28;20042;-90
2022/06/17 07:19:39;;;;;;;3.90;3.03;;;;;;;17.39;77.66;101508.31;6236112;28;20054;-90
2022/06/17 07:22:42;;;;;;;5.45;3.00;;;;;;;17.47;77.32;101510.25;6221514;28;20053;-91
2022/06/17 07:25:45;;;;;;;3.90;2.80;;;;;;;17.75;72.37;101511.94;6245543;28;20094;-89
2022/06/17 07:28:49;;;;;;;2.90;2.30;;;;;;;17.93;69.52;101524.31;6235546;28;20124;-89
2022/06/17 07:31:51;;;;;;;4.97;2.60;;;;;;;18.14;69.01;101527.50;6237096;28;20077;-90
2022/06/17 07:34:53;;;;;;;5.68;3.17;;;;;;;18.49;67.60;101515.44;6224538;28;20558;-90
2022/06/17 07:41:19;;;;;;;5.18;2.50;;;;;;;18.83;68.72;101496.41;6224501;28;20065;-90
2022/06/17 07:44:22;;;;;;;4.05;2.30;;;;;;;18.90;62.51;101505.34;6232330;28;20037;-90
2022/06/17 07:47:24;;;;;;;4.00;2.80;;;;;;;18.99;59.99;101499.19;6238112;28;20045;-89
2022/06/17 07:50:33;;;;;;;3.67;2.28;;;;;;;18.89;62.56;101494.03;6256585;28;20159;-90
2022/06/17 07:53:36;;;;;;;5.38;2.70;;;;;;;18.86;64.44;101483.84;6236453;28;20046;-90
2022/06/17 07:56:38;;;;;;;5.32;2.80;;;;;;;18.98;63.77;101473.09;6248178;28;20045;-90
2022/06/17 07:59:40;;;;;;;2.70;2.38;;;;;;;19.05;64.58;101467.06;6248281;28;20517;-90
2022/06/17 08:02:42;;;;;;;4.93;2.67;;;;;;;19.12;62.69;101462.03;6238967;28;20042;-90
2022/06/17 08:05:49;;;;;;;4.47;2.20;;;;;;;19.13;61.75;101467.16;6257833;28;20040;-90
2022/06/17 08:08:50;;;;;;;5.63;2.67;;;;;;;19.26;61.38;101465.91;6244972;28;20151;-90
2022/06/17 08:11:52;;;;;;;4.82;2.63;;;;;;;19.44;64.07;101466.66;6255451;28;20128;-90
2022/06/17 08:14:56;;;;;;;4.18;2.40;;;;;;;19.67;61.51;101463.47;6223355;28;20056;-90
2022/06/17 08:17:59;;;;;;;6.68;2.22;;;;;;;19.73;60.47;101468.97;6234439;28;20044;-90
2022/06/17 08:40:50;;;;;;;3.95;2.58;;;;;;;20.80;55.46;101469.19;7581975;23;20707;31
2022/06/17 08:48:05;;;;;;;4.45;2.70;;;;;;;20.79;54.64;101467.53;7259090;23;20030;-96
2022/06/17 08:59:48;;;;;;;5.55;2.88;;;;;;;20.80;56.66;101454.22;7453194;23;20699;31
2022/06/17 09:03:26;;;;;;;5.15;2.58;;;;;;;20.88;56.32;101449.94;6296509;23;19926;-96
2022/06/17 09:06:54;;;;;;;5.82;2.65;;;;;;;20.89;54.61;101444.50;6168885;28;20050;-96
2022/06/17 09:10:40;;;;;;;3.13;2.67;;;;;;;21.09;55.41;101442.31;6154992;28;20051;-96
2022/06/17 09:14:14;;;;;;;3.60;2.70;;;;;;;21.32;54.27;101433.75;6179781;28;20047;-96
2022/06/17 09:17:38;;;;;;;4.25;2.53;;;;;;;21.49;54.58;101427.44;6179981;28;20052;-96
2022/06/17 09:20:44;;;;;;;5.32;2.65;;;;;;;21.82;52.01;101432.56;6168162;28;20045;-96
2022/06/17 09:23:50;;;;;;;4.22;2.78;;;;;;;22.06;52.07;101423.69;6166746;28;20035;-96
2022/06/17 09:27:06;;;;;;;4.45;2.67;;;;;;;22.45;51.03;101428.88;6167861;28;20042;-96
2022/06/17 09:30:32;;;;;;;7.35;2.70;;;;;;;23.02;49.17;101443.41;6176159;28;20057;-96
2022/06/17 09:34:00;;;;;;;4.47;2.83;;;;;;;23.34;45.66;101441.41;6173180;28;20031;-96
2022/06/17 09:37:14;;;;;;;3.58;2.63;;;;;;;23.57;46.52;101428.88;6170717;28;20536;-96
2022/06/17 09:40:35;;;;;;;5.03;2.88;;;;;;;24.04;43.76;101432.91;6172696;28;20038;-96
2022/06/17 09:43:50;;;;;;;4.07;2.78;;;;;;;24.43;42.74;101439.59;6170262;28;20162;-96
2022/06/17 09:46:55;;;;;;;3.78;3.15;;;;;;;24.42;42.58;101437.13;6164263;28;20047;-96
2022/06/17 09:50:07;;;;;;;6.60;2.95;;;;;;;24.32;43.86;101442.75;6165322;28;20447;-96
2022/06/17 09:53:24;;;;;;;4.95;2.97;;;;;;;24.64;43.70;101443.25;6172232;28;20412;-96
2022/06/17 09:57:08;;;;;;;3.88;2.63;;;;;;;25.00;42.08;101448.41;6170692;28;20043;-96
2022/06/17 10:00:15;;;;;;;5.32;3.15;;;;;;;25.13;43.54;101445.03;6117710;28;20044;-96
2022/06/17 10:03:35;;;;;;;5.43;2.53;;;;;;;25.30;41.72;101462.28;6139390;28;20058;-96
2022/06/17 10:06:50;;;;;;;3.28;2.85;;;;;;;25.31;40.48;101468.38;6138485;28;20881;-96
2022/06/17 10:10:25;;;;;;;4.78;2.63;;;;;;;25.40;41.41;101464.56;6141090;28;20864;-96
2022/06/17 10:13:30;;;;;;;2.75;2.20;;;;;;;25.65;40.08;101446.31;6143494;28;20106;-96
2022/06/17 10:20:21;;;;;;;4.13;2.22;;;;;;;25.85;39.98;101456.19;6116594;28;20082;-96
2022/06/17 10:23:46;;;;;;;5.28;2.65;;;;;;;25.91;40.73;101448.28;6132177;28;20109;-96
2022/06/17 10:26:51;;;;;;;4.50;2.47;;;;;;;25.99;41.78;101445.44;6138306;28;20086;-96
2022/06/17 10:30:11;;;;;;;3.33;2.50;;;;;;;26.02;40.01;101444.22;6140317;28;20055;-96
2022/06/17 10:33:16;;;;;;;3.65;2.67;;;;;;;26.06;39.48;101445.47;6112791;28;20046;-96
2022/06/17 10:36:18;;;;;;;4.70;2.67;;;;;;;25.83;40.86;101437.81;6161707;28;20050;-96
2022/06/17 10:39:24;;;;;;;3.70;3.03;;;;;;;25.83;42.83;101451.06;6157082;28;20423;-96
2022/06/17 10:42:28;;;;;;;4.70;2.42;;;;;;;25.84;40.32;101439.47;6154860;28;20045;-96
2022/06/17 10:45:31;;;;;;;3.17;2.45;;;;;;;26.32;39.08;101439.34;6158427;28;20113;-96
2022/06/17 10:48:44;;;;;;;3.20;2.30;;;;;;;26.50;41.66;101440.59;6188875;28;20035;-96
2022/06/17 10:51:59;;;;;;;3.28;2.60;;;;;;;26.82;42.62;101431.00;6160375;28;20042;-96
2022/06/17 10:55:03;;;;;;;4.25;2.95;;;;;;;26.91;40.16;101429.75;6161652;28;20053;-96
2022/06/17 10:58:25;;;;;;;2.65;2.45;;;;;;;27.01;38.45;101435.47;6175163;28;20487;-96
2022/06/17 11:01:46;;;;;;;4.25;2.67;;;;;;;26.92;38.56;101427.91;6172733;28;20334;-96
2022/06/17 11:05:00;;;;;;;5.90;2.70;;;;;;;26.75;37.97;101428.34;6164489;28;20518;-96
2022/06/17 11:08:20;;;;;;;3.38;2.38;;;;;;;26.78;39.65;101427.09;6160976;28;20170;-96
2022/06/17 11:12:03;;;;;;;3.30;2.40;;;;;;;26.92;39.95;101410.13;6158629;28;20591;-96
2022/06/17 11:15:20;;;;;;;4.80;2.90;;;;;;;27.24;41.25;101410.28;6143468;28;20052;-96
2022/06/17 11:18:28;;;;;;;5.03;2.83;;;;;;;27.56;37.79;101405.03;6165733;28;20047;-96
2022/06/17 11:21:47;;;;;;;3.75;2.70;;;;;;;27.77;37.25;101404.69;6162358;28;20090;-97
2022/06/17 11:25:01;;;;;;;5.22;2.40;;;;;;;27.95;40.04;101395.19;6177201;28;20031;-96
2022/06/17 11:28:36;;;;;;;3.28;2.70;;;;;;;28.11;39.93;101384.84;6167771;28;20115;-96
2022/06/17 11:31:46;;;;;;;4.30;2.60;;;;;;;28.27;39.75;101378.19;6417185;23;20018;31
2022/06/17 11:34:56;;;;;;;4.40;2.83;;;;;;;28.41;40.15;101378.88;6164757;28;20099;-96
2022/06/17 11:38:03;;;;;;;4.47;2.38;;;;;;;28.44;39.77;101380.28;6149645;28;20039;-96
2022/06/17 11:41:15;;;;;;;3.35;2.50;;;;;;;28.54;38.35;101381.41;6173302;23;20044;31
2022/06/17 11:44:28;;;;;;;4.32;2.70;;;;;;;28.71;36.48;101373.69;6396314;23;21436;-94
2022/06/17 11:47:34;;;;;;;2.78;2.35;;;;;;;28.84;37.35;101366.56;6124295;28;20046;-95
2022/06/17 11:50:40;;;;;;;3.22;2.40;;;;;;;28.71;36.04;101363.03;6115771;29;20044;-94
2022/06/17 11:53:52;;;;;;;4.45;2.78;;;;;;;28.48;36.24;101365.53;6134319;28;20504;-94
2022/06/17 11:56:55;;;;;;;7.25;2.47;;;;;;;28.49;37.20;101367.13;6141501;28;20043;-94
2022/06/17 12:00:00;;;;;;;3.80;2.45;;;;;;;28.56;38.73;101367.91;6133102;28;20335;-93
2022/06/17 12:03:02;;;;;;;3.85;2.35;;;;;;;28.55;37.73;101364.41;6131631;28;20560;-95
2022/06/17 12:06:06;;;;;;;3.17;2.53;;;;;;;28.40;39.29;101361.25;6133729;28;20128;-95
2022/06/17 12:09:30;;;;;;;2.58;2.30;;;;;;;28.37;39.22;101361.69;6130468;28;20044;-94
2022/06/17 12:12:34;;;;;;;2.75;2.45;;;;;;;28.30;36.36;101355.63;6135329;28;20039;-94
2022/06/17 12:15:44;;;;;;;5.78;2.28;;;;;;;28.20;35.98;101356.13;6131986;28;20091;-95
2022/06/17 12:18:51;;;;;;;4.20;2.35;;;;;;;28.23;35.17;101353.00;6142214;28;20111;-95
2022/06/17 12:22:25;;;;;;;2.40;2.13;;;;;;;28.06;37.16;101344.75;6144916;28;20282;-95
2022/06/17 12:25:50;;;;;;;4.00;2.40;;;;;;;28.17;36.03;101342.41;6129503;28;20043;-95
2022/06/17 12:29:10;;;;;;;2.83;2.40;;;;;;;28.40;38.63;101342.63;6131261;28;20055;-95
2022/06/17 12:32:19;;;;;;;1.73;1.63;;;;;;;28.67;37.74;101337.88;6148494;28;20076;-89
2022/06/17 12:35:25;;;;;;;2.40;1.90;;;;;;;28.84;35.89;101342.59;6125608;28;20073;-90
2022/06/17 12:38:37;;;;;;;2.78;1.90;;;;;;;28.91;38.53;101346.00;6143181;28;20227;-89
2022/06/17 12:42:16;;;;;;;3.13;1.88;;;;;;;28.90;32.94;101336.38;6138725;28;20619;-89
2022/06/17 12:45:43;;;;;;;2.17;1.50;;;;;;;28.81;35.52;101335.03;6138370;28;20042;-89
2022/06/17 12:53:14;;;;;;;1.67;1.58;;;;;;;28.89;34.15;101340.88;6142375;28;20639;-89
2022/06/17 12:56:11;;;;;;;2.25;2.00;;;;;;;28.67;35.62;101335.22;6138822;28;20481;-89
2022/06/17 12:59:55;;;;;;;4.95;1.83;;;;;;;28.48;36.26;101337.03;6142167;28;20065;-89
2022/06/17 13:03:20;;;;;;;2.55;1.83;;;;;;;28.31;38.49;101323.44;6140663;28;20039;-89
2022/06/17 13:06:44;;;;;;;1.60;1.50;;;;;;;28.31;37.20;101319.97;6136924;28;20055;-89
2022/06/17 13:13:46;;;;;;;4.30;2.03;;;;;;;28.59;37.09;101318.69;6144740;28;20054;-90
2022/06/17 13:17:00;;;;;;;2.35;1.70;;;;;;;28.82;37.39;101313.50;6139565;28;20058;-89
2022/06/17 13:20:09;;;;;;;2.58;1.90;;;;;;;28.96;35.31;101304.28;6158738;28;20598;-89
2022/06/17 13:23:24;;;;;;;2.97;2.07;;;;;;;29.08;38.58;101308.91;6136380;28;20576;-89
2022/06/17 13:26:46;;;;;;;2.17;2.00;;;;;;;28.96;38.58;101306.97;6132025;28;20290;-89
2022/06/17 13:30:20;;;;;;;2.47;2.10;;;;;;;28.89;38.57;101308.09;6126868;29;20160;-89
2022/06/17 13:33:58;;;;;;;2.45;1.88;;;;;;;28.75;38.91;101305.59;6138022;28;20497;-89
2022/06/17 13:37:08;;;;;;;2.97;2.13;;;;;;;28.48;38.36;101312.25;6066717;29;20101;-89
2022/06/17 13:40:13;;;;;;;;;;;;;;;28.08;38.20;101309.94;6069782;29;20123;-89
2022/06/17 13:43:39;;;;;;;2.42;2.20;;;;;;;27.84;40.32;101311.56;6068881;29;19979;-89
2022/06/17 13:47:03;;;;;;;3.28;2.10;;;;;;;27.70;40.46;101305.47;6067011;29;20143;-89
2022/06/17 13:50:46;;;;;;;2.85;1.95;;;;;;;27.58;42.60;101299.25;6056369;29;20208;-89
2022/06/17 13:53:53;;;;;;;;;;;;;;;27.56;41.22;101301.31;6071086;29;20056;-89
2022/06/17 13:57:26;;;;;;;2.30;2.05;;;;;;;27.57;41.85;101285.09;6076545;29;19935;-89
2022/06/17 14:00:44;;;;;;;2.72;2.05;;;;;;;27.57;42.11;101286.97;6071484;29;20084;-89
2022/06/17 14:04:17;;;;;;;2.67;1.80;;;;;;;27.36;43.57;101286.28;6068511;29;20076;-89
2022/06/17 14:07:59;;;;;;;3.13;2.10;;;;;;;27.11;41.30;101285.38;6065588;29;20926;-88
2022/06/17 14:11:31;;;;;;;3.45;2.00;;;;;;;26.91;43.47;101278.31;6066150;29;20081;-88
2022/06/17 14:14:25;;;;;;;2.40;2.20;;;;;;;26.85;44.12;101266.66;6128749;28;20083;-88
2022/06/17 14:17:26;;;;;;;2.40;2.20;;;;;;;26.88;46.82;101273.41;6142155;28;20070;-88
2022/06/17 14:20:42;;;;;;;3.53;2.40;;;;;;;26.94;49.39;101277.06;6136885;28;20067;-88
2022/06/17 14:23:51;;;;;;;2.13;1.98;;;;;;;27.03;44.03;101273.13;6139476;28;20056;-88
2022/06/17 14:26:54;;;;;;;2.45;2.05;;;;;;;27.06;45.03;101276.19;6144222;28;20043;-88
2022/06/17 14:30:15;;;;;;;4.53;2.38;;;;;;;26.90;43.58;101260.72;6145567;28;20054;-88
2022/06/17 14:33:39;;;;;;;2.75;2.55;;;;;;;26.69;45.34;101269.00;6135331;28;20172;-87
2022/06/17 14:36:59;;;;;;;3.78;2.55;;;;;;;26.51;44.80;101273.09;6138057;28;20048;-87
2022/06/17 14:40:28;;;;;;;3.43;2.40;;;;;;;26.28;47.40;101273.53;6140201;28;20055;-87
2022/06/17 14:43:32;;;;;;;;;;;;;;;26.16;47.79;101269.88;6144468;28;20727;-88
2022/06/17 14:47:12;;;;;;;3.33;2.03;;;;;;;26.08;47.88;101264.81;6157504;28;20383;-88
2022/06/17 14:50:23;;;;;;;;;;;;;;;26.05;46.72;101266.03;6147846;28;20079;-87
2022/06/17 14:53:35;;;;;;;2.35;2.15;;;;;;;26.01;46.74;101251.53;6134015;28;19926;-88
2022/06/17 14:57:27;;;;;;;2.90;2.15;;;;;;;26.00;46.91;101245.41;6147709;28;20040;-88
2022/06/17 15:00:41;;;;;;;3.78;2.22;;;;;;;26.07;47.84;101249.91;6044714;29;20052;-88
2022/06/17 15:03:43;;;;;;;2.92;2.45;;;;;;;26.18;48.18;101257.22;6066590;29;20143;-88
2022/06/17 15:06:46;;;;;;;3.08;2.15;;;;;;;26.43;48.12;101236.13;6063009;29;20197;-89
2022/06/17 15:09:54;;;;;;;2.85;2.10;;;;;;;26.61;49.48;101239.00;6064681;29;20075;-89
2022/06/17 15:14:07;;;;;;;3.13;2.20;;;;;;;26.68;47.96;101232.81;6064770;29;20048;-90
2022/06/17 15:16:54;;;;;;;2.00;1.90;;;;;;;26.63;49.78;101230.78;6065198;29;20057;-92
2022/06/17 15:19:57;;;;;;;2.40;2.20;;;;;;;26.57;50.33;101226.34;6065369;29;20617;-93
2022/06/17 15:23:19;;;;;;;2.65;2.28;;;;;;;26.59;49.37;101230.41;6065254;29;20044;-92
2022/06/17 15:26:48;;;;;;;2.55;2.10;;;;;;;26.91;48.71;101219.03;6058967;29;20044;-92
2022/06/17 15:30:19;;;;;;;3.00;1.83;;;;;;;27.30;46.84;101231.28;6043676;29;20083;-93
2022/06/17 15:33:28;;;;;;;2.25;1.70;;;;;;;27.38;46.39;101219.56;6049832;29;20044;-92
2022/06/17 15:36:45;;;;;;;2.10;1.60;;;;;;;27.59;46.90;101221.88;6114116;28;20064;-92
2022/06/17 15:39:47;;;;;;;3.20;1.88;;;;;;;27.83;45.25;101222.94;6127684;28;20099;-93